Ottumwa Regional Airport Ottumwa US
ICAO: KOTM
IATA: OTM
Category: Medium
Scheduled Services: No

Elevation: 845 ft
TransAlt. 18000 ft.

Airport Communications:
ASOS:124.175
CHICAGO CNTR:118.15
FORT DODGE RDO:122.4
CTAF/UNICOM:123

KOTM Zoom In..

Runways:

(A) RW 04 length 4600 ft width 100 ft
---- / hdg 42

(B) RW 13 length 5885 ft width 150 ft
---- / hdg 132

(C) RW 22 length 4600 ft width 100 ft
---- / hdg 222

(D) RW 31 length 5885 ft width 150 ft
ILS 109.50 / hdg 312

Location; KOTM
Day. 19 / Time. 20.53 Zulu
* Altimeter: 30.44
* Temperature: 13° c. 55.4°f.
* Wind from: 340° Speed 08 kn.
Dewpoint: -03° c.
Visibility: 10 Statute Miles.
Clouds: Clear (automated report).

KOTM 192053Z AUTO 34008KT 10SM CLR 13/M03 A3044 RMK AO2 SLP313 T01331033 58007


Wind From 340°
Speed 08 kn.

  YouTube Music Video
 
jpsmedia.com for Web Design  worldairports.se 2018   terms of use